createdAt,value
2017-09-28T00:01:45.919Z,38.60
2017-09-28T00:04:16.599Z,39.65
2017-09-28T00:06:47.874Z,39.97
2017-09-28T00:09:19.600Z,40.35
2017-09-28T00:11:50.505Z,36.65
2017-09-28T00:14:21.629Z,36.75
2017-09-28T00:16:53.539Z,32.65
2017-09-28T00:19:24.787Z,33.25
2017-09-28T00:21:55.729Z,36.25
2017-09-28T00:24:26.797Z,34.95
2017-09-28T00:26:57.978Z,40.05
2017-09-28T00:29:29.710Z,40.42
2017-09-28T00:32:00.810Z,32.08
2017-09-28T00:34:33.225Z,35.53
2017-09-28T00:37:05.468Z,35.92
2017-09-28T00:39:37.284Z,51.47
2017-09-28T00:42:08.882Z,35.58
2017-09-28T00:44:39.988Z,42.65
2017-09-28T00:47:10.849Z,39.47
2017-09-28T00:49:41.567Z,38.65
2017-09-28T00:52:12.651Z,38.17
2017-09-28T00:54:44.707Z,39.30
2017-09-28T00:57:15.634Z,38.17
2017-09-28T00:59:46.707Z,39.22
2017-09-28T01:02:17.376Z,37.80
2017-09-28T01:04:48.323Z,39.58
2017-09-28T01:07:19.726Z,42.10
2017-09-28T01:09:50.236Z,41.25
2017-09-28T01:12:21.282Z,42.53
2017-09-28T01:14:52.832Z,40.15
2017-09-28T01:17:24.043Z,38.28
2017-09-28T01:19:55.242Z,43.75
2017-09-28T01:22:26.114Z,47.10
2017-09-28T01:24:57.934Z,45.85
2017-09-28T01:27:28.920Z,45.75
2017-09-28T01:29:59.701Z,41.42
2017-09-28T01:32:30.544Z,46.75
2017-09-28T01:35:02.022Z,40.65
2017-09-28T01:37:32.782Z,40.80
2017-09-28T01:40:03.884Z,37.83
2017-09-28T01:42:35.437Z,46.40
2017-09-28T01:45:06.009Z,45.00
2017-09-28T01:47:37.708Z,42.15
2017-09-28T01:50:08.900Z,46.70
2017-09-28T01:52:39.809Z,47.28
2017-09-28T01:55:10.940Z,52.35
2017-09-28T01:57:42.243Z,47.05
2017-09-28T02:00:13.458Z,47.45
2017-09-28T02:02:44.408Z,46.67
2017-09-28T02:05:15.320Z,40.65
2017-09-28T02:07:46.300Z,41.13
2017-09-28T02:10:16.784Z,38.03
2017-09-28T02:12:47.762Z,43.33
2017-09-28T02:15:19.421Z,39.78
2017-09-28T02:17:49.728Z,41.35
2017-09-28T02:20:20.779Z,44.95
2017-09-28T02:22:52.003Z,45.28
2017-09-28T02:25:23.175Z,49.58
2017-09-28T02:27:54.059Z,50.25
2017-09-28T02:30:25.806Z,41.13
2017-09-28T02:32:57.011Z,48.35
2017-09-28T02:35:28.294Z,42.83
2017-09-28T02:37:59.647Z,46.55
2017-09-28T02:40:30.529Z,42.40
2017-09-28T02:43:01.590Z,46.97
2017-09-28T02:45:32.996Z,51.65
2017-09-28T02:48:03.901Z,44.40
2017-09-28T02:50:34.734Z,47.70
2017-09-28T02:53:06.444Z,48.42
2017-09-28T02:55:37.527Z,47.60
2017-09-28T02:58:09.431Z,45.85
2017-09-28T03:00:40.466Z,41.70
2017-09-28T03:03:11.597Z,43.83
2017-09-28T03:05:42.447Z,42.30
2017-09-28T03:08:13.403Z,39.90
2017-09-28T03:10:44.135Z,52.05
2017-09-28T03:13:14.928Z,42.17
2017-09-28T03:15:46.543Z,36.28
2017-09-28T03:18:17.415Z,43.65
2017-09-28T03:20:49.065Z,44.72
2017-09-28T03:23:20.665Z,44.63
2017-09-28T03:25:51.236Z,39.35
2017-09-28T03:28:22.312Z,42.15
2017-09-28T03:30:53.406Z,48.50
2017-09-28T03:33:23.865Z,45.00
2017-09-28T03:35:56.918Z,48.38
2017-09-28T03:38:27.914Z,42.42
2017-09-28T03:40:58.889Z,46.92
2017-09-28T03:43:29.690Z,42.10
2017-09-28T03:46:00.708Z,42.05
2017-09-28T03:48:31.349Z,49.13
2017-09-28T03:51:02.709Z,52.50
2017-09-28T03:53:33.577Z,48.72
2017-09-28T03:56:04.980Z,50.35
2017-09-28T03:58:35.951Z,40.75
2017-09-28T04:01:06.487Z,51.92
2017-09-28T04:03:37.437Z,42.13
2017-09-28T04:06:08.207Z,44.03
2017-09-28T04:08:39.198Z,54.65
2017-09-28T04:11:10.375Z,51.08
2017-09-28T04:13:41.865Z,53.33
2017-09-28T04:16:12.828Z,48.50
2017-09-28T04:18:43.970Z,47.95
2017-09-28T04:21:15.000Z,42.58
2017-09-28T04:23:45.867Z,42.83
2017-09-28T04:26:17.682Z,46.72
2017-09-28T04:28:48.887Z,48.63
2017-09-28T04:31:19.841Z,51.65
2017-09-28T04:33:51.728Z,46.83
2017-09-28T04:36:22.944Z,49.35
2017-09-28T04:38:54.559Z,50.70
2017-09-28T04:41:25.345Z,46.88
2017-09-28T04:43:56.495Z,45.15
2017-09-28T04:46:28.145Z,48.58
2017-09-28T04:48:59.528Z,48.10
2017-09-28T04:51:30.221Z,48.83
2017-09-28T04:54:01.956Z,48.75
2017-09-28T04:56:32.827Z,54.35
2017-09-28T04:59:03.923Z,49.67
2017-09-28T05:01:35.962Z,52.13
2017-09-28T05:04:06.932Z,60.45
2017-09-28T05:06:37.916Z,50.35
2017-09-28T05:09:09.395Z,48.60
2017-09-28T05:11:40.797Z,53.03
2017-09-28T05:14:12.480Z,50.25
2017-09-28T05:16:44.215Z,55.53
2017-09-28T05:19:14.885Z,47.90
2017-09-28T05:21:46.148Z,51.47
2017-09-28T05:24:17.091Z,52.15
2017-09-28T05:26:48.041Z,58.15
2017-09-28T05:29:20.145Z,51.47
2017-09-28T05:31:51.922Z,51.25
2017-09-28T05:34:24.025Z,50.15
2017-09-28T05:36:55.611Z,51.60
2017-09-28T05:39:27.183Z,47.38
2017-09-28T05:41:57.968Z,52.38
2017-09-28T05:44:28.716Z,45.40
2017-09-28T05:47:00.726Z,48.20
2017-09-28T05:49:32.248Z,48.25
2017-09-28T05:52:03.902Z,52.80
2017-09-28T05:54:34.434Z,54.13
2017-09-28T05:57:05.967Z,52.00
2017-09-28T05:59:37.520Z,48.83
2017-09-28T06:02:08.646Z,49.10
2017-09-28T06:04:41.078Z,48.95
2017-09-28T06:07:12.258Z,54.67
2017-09-28T06:09:44.187Z,50.63
2017-09-28T06:12:15.998Z,52.13
2017-09-28T06:14:47.690Z,52.13
2017-09-28T06:17:18.787Z,47.50
2017-09-28T06:19:51.237Z,44.30
2017-09-28T06:22:22.502Z,50.63
2017-09-28T06:24:54.750Z,51.58
2017-09-28T06:27:25.569Z,50.17
2017-09-28T06:29:56.670Z,56.10
2017-09-28T06:32:28.510Z,51.42
2017-09-28T06:34:59.652Z,57.92
2017-09-28T06:37:30.456Z,58.05
2017-09-28T06:40:01.556Z,59.33
2017-09-28T06:42:32.274Z,56.97
2017-09-28T06:45:03.391Z,85.25
2017-09-28T06:47:34.841Z,57.50
2017-09-28T06:50:07.447Z,67.85
2017-09-28T06:52:39.291Z,55.80
2017-09-28T06:55:11.556Z,60.90
2017-09-28T06:57:43.742Z,61.78
2017-09-28T07:00:15.323Z,58.38
2017-09-28T07:02:46.870Z,80.90
2017-09-28T07:05:19.249Z,62.08
2017-09-28T07:07:51.435Z,68.55
2017-09-28T07:10:23.188Z,70.60
2017-09-28T07:12:54.814Z,66.10
2017-09-28T07:15:26.264Z,71.75
2017-09-28T07:17:58.774Z,80.93
2017-09-28T07:20:29.798Z,71.72
2017-09-28T07:23:01.821Z,82.03
2017-09-28T07:25:33.364Z,79.20
2017-09-28T07:28:05.538Z,74.72
2017-09-28T07:30:37.618Z,75.87
2017-09-28T07:33:08.746Z,68.57
2017-09-28T07:35:40.054Z,67.15
2017-09-28T07:38:11.443Z,73.37
2017-09-28T07:40:43.895Z,70.65
2017-09-28T07:43:15.716Z,72.57
2017-09-28T07:45:47.933Z,74.53
2017-09-28T07:48:19.054Z,70.18
2017-09-28T07:50:50.022Z,79.28
2017-09-28T07:53:20.951Z,64.40
2017-09-28T07:55:52.022Z,78.72
2017-09-28T07:58:23.646Z,58.00
2017-09-28T08:00:55.406Z,60.28
2017-09-28T08:03:26.347Z,61.78
2017-09-28T08:05:58.325Z,69.15
2017-09-28T08:08:29.234Z,65.68
2017-09-28T08:11:02.050Z,73.07
2017-09-28T08:13:33.177Z,80.65
2017-09-28T08:16:04.732Z,76.70
2017-09-28T08:18:36.263Z,79.55
2017-09-28T08:21:07.896Z,76.30
2017-09-28T08:23:39.120Z,68.15
2017-09-28T08:26:11.291Z,82.55
2017-09-28T08:28:43.226Z,94.05
2017-09-28T08:31:13.953Z,84.65
2017-09-28T08:33:45.097Z,80.22
2017-09-28T08:36:16.176Z,66.82
2017-09-28T08:38:48.280Z,73.00
2017-09-28T08:41:20.360Z,80.68
2017-09-28T08:43:52.680Z,74.47
2017-09-28T08:46:25.028Z,67.28
2017-09-28T08:48:58.488Z,66.72
2017-09-28T08:51:30.223Z,64.75
2017-09-28T08:54:01.187Z,67.40
2017-09-28T08:56:32.676Z,72.82
2017-09-28T08:59:05.065Z,75.53
2017-09-28T09:01:37.706Z,65.45
2017-09-28T09:04:09.847Z,71.87
2017-09-28T09:06:42.002Z,74.22
2017-09-28T09:09:13.246Z,71.45
2017-09-28T09:11:45.682Z,65.15
2017-09-28T09:14:17.345Z,70.30
2017-09-28T09:16:50.082Z,72.57
2017-09-28T09:19:23.021Z,66.70
2017-09-28T09:21:55.367Z,69.27
2017-09-28T09:24:28.004Z,69.40
2017-09-28T09:26:59.585Z,60.53
2017-09-28T09:29:33.818Z,60.27
2017-09-28T09:32:08.483Z,58.20
2017-09-28T09:34:51.093Z,55.93
2017-09-28T09:37:29.290Z,54.93
2017-09-28T09:40:06.631Z,58.97
2017-09-28T09:42:49.614Z,61.93
2017-09-28T09:45:21.345Z,56.00
2017-09-28T09:47:55.969Z,55.25
2017-09-28T09:50:30.218Z,65.40
2017-09-28T09:53:02.097Z,48.40
2017-09-28T09:55:35.203Z,53.07
2017-09-28T09:58:07.463Z,50.37
2017-09-28T10:00:41.487Z,52.53
2017-09-28T10:03:17.066Z,57.13
2017-09-28T10:05:53.051Z,53.70
2017-09-28T10:08:43.965Z,54.70
2017-09-28T10:11:45.598Z,59.07
2017-09-28T10:14:30.559Z,50.10
2017-09-28T10:17:03.055Z,59.67
2017-09-28T10:19:35.495Z,62.97
2017-09-28T10:22:08.298Z,48.97
2017-09-28T10:24:44.071Z,57.77
2017-09-28T10:27:18.848Z,54.20
2017-09-28T10:29:53.246Z,47.10
2017-09-28T10:32:28.307Z,49.67
2017-09-28T10:35:01.670Z,52.90
2017-09-28T10:37:34.742Z,49.30
2017-09-28T10:40:06.827Z,52.20
2017-09-28T10:42:40.336Z,53.43
2017-09-28T10:45:15.337Z,50.97
2017-09-28T10:47:49.535Z,46.23
2017-09-28T10:50:31.858Z,45.70
2017-09-28T10:53:05.593Z,46.50
2017-09-28T10:55:55.420Z,49.90
2017-09-28T10:58:38.060Z,60.10
2017-09-28T11:01:12.808Z,51.80
2017-09-28T11:03:50.675Z,45.60
2017-09-28T11:06:28.986Z,54.27
2017-09-28T11:09:02.505Z,44.80
2017-09-28T11:11:48.376Z,44.37
2017-09-28T11:14:38.207Z,47.23
2017-09-28T11:17:25.978Z,47.23
2017-09-28T11:20:03.945Z,43.40
2017-09-28T11:22:39.561Z,41.80
2017-09-28T11:25:29.688Z,38.50
2017-09-28T11:28:03.722Z,45.33
2017-09-28T11:30:41.299Z,37.63
2017-09-28T11:33:19.304Z,38.20
2017-09-28T11:35:53.749Z,40.30
2017-09-28T11:38:27.970Z,38.20
2017-09-28T11:41:05.775Z,39.47
2017-09-28T11:43:39.842Z,33.73
2017-09-28T11:46:14.207Z,29.80
2017-09-28T11:48:48.094Z,29.20
2017-09-28T11:51:21.750Z,30.97
2017-09-28T11:53:55.948Z,33.80
2017-09-28T11:56:34.261Z,36.07
2017-09-28T11:59:12.551Z,35.10
2017-09-28T12:01:46.901Z,29.67
2017-09-28T12:04:29.644Z,31.67
2017-09-28T12:07:03.404Z,33.27
2017-09-28T12:09:49.467Z,26.40
2017-09-28T12:12:28.019Z,28.30
2017-09-28T12:15:10.948Z,28.47
2017-09-28T12:17:52.920Z,26.83
2017-09-28T12:20:28.096Z,26.73
2017-09-28T12:23:03.487Z,41.27
2017-09-28T12:25:38.083Z,25.13
2017-09-28T12:28:11.103Z,35.30
2017-09-28T12:30:44.222Z,32.30
2017-09-28T12:33:18.115Z,27.80
2017-09-28T12:35:49.603Z,27.73
2017-09-28T12:38:23.054Z,30.87
2017-09-28T12:40:56.581Z,24.60
2017-09-28T12:43:30.868Z,20.23
2017-09-28T12:46:02.869Z,22.30
2017-09-28T12:48:34.923Z,19.40
2017-09-28T12:51:07.707Z,21.20
2017-09-28T12:53:40.550Z,21.93
2017-09-28T12:56:14.479Z,19.30
2017-09-28T12:58:46.457Z,22.53
2017-09-28T13:01:19.549Z,26.97
2017-09-28T13:03:51.124Z,17.63
2017-09-28T13:06:22.559Z,27.10
2017-09-28T13:08:56.903Z,21.07
2017-09-28T13:11:30.346Z,15.93
2017-09-28T13:14:02.279Z,19.10
2017-09-28T13:16:34.131Z,22.47
2017-09-28T13:19:05.934Z,17.27
2017-09-28T13:21:38.301Z,13.73
2017-09-28T13:24:10.329Z,11.30
2017-09-28T13:26:42.062Z,16.33
2017-09-28T13:29:13.668Z,17.00
2017-09-28T13:31:45.534Z,21.80
2017-09-28T13:34:17.577Z,17.63
2017-09-28T13:36:51.086Z,18.80
2017-09-28T13:39:23.228Z,19.27
2017-09-28T13:41:55.910Z,20.20
2017-09-28T13:44:29.365Z,17.67
2017-09-28T13:47:01.250Z,15.07
2017-09-28T13:49:32.772Z,18.97
2017-09-28T13:52:04.592Z,16.60
2017-09-28T13:54:36.887Z,19.80
2017-09-28T13:57:09.526Z,19.40
2017-09-28T13:59:40.690Z,14.43
2017-09-28T14:02:12.738Z,18.27
2017-09-28T14:04:45.128Z,16.03
2017-09-28T14:07:17.471Z,15.20
2017-09-28T14:09:50.432Z,19.13
2017-09-28T14:12:22.124Z,14.77
2017-09-28T14:14:53.572Z,13.93
2017-09-28T14:17:25.229Z,14.57
2017-09-28T14:19:57.607Z,11.60
2017-09-28T14:22:28.840Z,13.60
2017-09-28T14:25:00.849Z,16.10
2017-09-28T14:27:33.027Z,12.20
2017-09-28T14:30:05.347Z,15.90
2017-09-28T14:32:37.105Z,16.10
2017-09-28T14:35:08.738Z,16.93
2017-09-28T14:37:41.290Z,12.00
2017-09-28T14:40:14.364Z,12.90
2017-09-28T14:42:47.316Z,16.67
2017-09-28T14:45:19.872Z,14.87
2017-09-28T14:47:51.575Z,13.37
2017-09-28T14:50:23.447Z,18.20
2017-09-28T14:52:56.348Z,14.57
2017-09-28T14:55:28.125Z,16.57
2017-09-28T14:58:00.274Z,14.80
2017-09-28T15:00:34.382Z,19.77
2017-09-28T15:03:07.778Z,15.30
2017-09-28T15:05:40.339Z,14.87
2017-09-28T15:08:12.130Z,14.87
2017-09-28T15:10:43.771Z,17.63
2017-09-28T15:13:16.349Z,15.10
2017-09-28T15:15:48.593Z,21.00
2017-09-28T15:18:20.913Z,17.17
2017-09-28T15:20:52.688Z,17.00
2017-09-28T15:23:25.709Z,16.87
2017-09-28T15:25:58.019Z,16.73
2017-09-28T15:28:30.197Z,13.53
2017-09-28T15:31:01.794Z,17.60
2017-09-28T15:33:33.867Z,13.77
2017-09-28T15:36:06.032Z,15.33
2017-09-28T15:38:38.393Z,14.00
2017-09-28T15:41:13.937Z,12.60
2017-09-28T15:43:46.057Z,14.30
2017-09-28T15:46:18.197Z,15.00
2017-09-28T15:48:50.154Z,14.63
2017-09-28T15:51:22.133Z,14.30
2017-09-28T15:53:54.641Z,14.47
2017-09-28T15:56:25.619Z,14.10
2017-09-28T15:58:58.106Z,16.53
2017-09-28T16:01:30.502Z,15.80
2017-09-28T16:04:03.298Z,21.73
2017-09-28T16:06:35.134Z,17.13
2017-09-28T16:09:07.161Z,17.30
2017-09-28T16:11:38.332Z,18.10
2017-09-28T16:14:10.251Z,17.03
2017-09-28T16:16:41.653Z,12.77
2017-09-28T16:19:13.340Z,11.70
2017-09-28T16:21:45.081Z,6.30
2017-09-28T16:24:16.805Z,4.50
2017-09-28T16:26:49.235Z,7.53
2017-09-28T16:29:21.001Z,8.03
2017-09-28T16:31:53.147Z,5.23
2017-09-28T16:34:25.524Z,8.23
2017-09-28T16:36:57.432Z,17.50
2017-09-28T16:39:29.797Z,11.03
2017-09-28T16:42:02.730Z,9.53
2017-09-28T16:44:35.100Z,10.00
2017-09-28T16:47:07.467Z,8.03
2017-09-28T16:49:39.853Z,8.80
2017-09-28T16:52:12.035Z,9.53
2017-09-28T16:54:45.275Z,8.57
2017-09-28T16:57:17.946Z,9.03
2017-09-28T16:59:51.185Z,11.03
2017-09-28T17:02:22.894Z,7.83
2017-09-28T17:04:55.705Z,9.67
2017-09-28T17:07:27.167Z,7.83
2017-09-28T17:09:58.806Z,9.50
2017-09-28T17:12:29.703Z,10.07
2017-09-28T17:15:01.406Z,10.10
2017-09-28T17:17:33.244Z,10.47
2017-09-28T17:20:06.996Z,8.53
2017-09-28T17:22:38.655Z,8.33
2017-09-28T17:25:10.442Z,8.97
2017-09-28T17:27:42.791Z,6.70
2017-09-28T17:30:14.305Z,7.73
2017-09-28T17:32:45.796Z,7.67
2017-09-28T17:35:16.991Z,11.97
2017-09-28T17:37:48.824Z,5.17
2017-09-28T17:40:20.718Z,8.13
2017-09-28T17:42:52.423Z,9.17
2017-09-28T17:45:24.346Z,7.10
2017-09-28T17:47:58.145Z,9.87
2017-09-28T17:50:30.645Z,6.17
2017-09-28T17:53:02.832Z,8.37
2017-09-28T17:55:35.184Z,7.17
2017-09-28T17:58:06.538Z,7.87
2017-09-28T18:00:38.408Z,19.50
2017-09-28T18:03:09.582Z,8.73
2017-09-28T18:05:41.520Z,22.27
2017-09-28T18:08:13.284Z,8.47
2017-09-28T18:10:45.508Z,7.17
2017-09-28T18:13:18.561Z,8.60
2017-09-28T18:15:50.242Z,12.73
2017-09-28T18:18:21.841Z,9.20
2017-09-28T18:20:53.953Z,6.60
2017-09-28T18:23:25.381Z,7.30
2017-09-28T18:25:57.771Z,13.53
2017-09-28T18:28:30.095Z,6.37
2017-09-28T18:31:14.276Z,7.30
2017-09-28T18:33:46.763Z,5.57
2017-09-28T18:36:19.131Z,5.43
2017-09-28T18:38:50.402Z,6.73
2017-09-28T18:41:21.964Z,4.37
2017-09-28T18:43:53.381Z,5.83
2017-09-28T18:46:25.437Z,8.37
2017-09-28T18:48:57.043Z,5.30
2017-09-28T18:51:28.645Z,6.90
2017-09-28T18:53:59.914Z,8.20
2017-09-28T18:56:31.662Z,6.73
2017-09-28T18:59:02.836Z,9.03
2017-09-28T19:01:35.125Z,17.80
2017-09-28T19:04:06.743Z,6.10
2017-09-28T19:06:38.082Z,6.13
2017-09-28T19:09:10.026Z,5.43
2017-09-28T19:11:42.168Z,11.90
2017-09-28T19:14:13.923Z,6.70
2017-09-28T19:16:45.634Z,6.30
2017-09-28T19:19:17.107Z,7.90
2017-09-28T19:21:48.883Z,6.43
2017-09-28T19:24:20.480Z,6.90
2017-09-28T19:26:52.615Z,10.43
2017-09-28T19:29:25.225Z,8.70
2017-09-28T19:31:58.107Z,8.27
2017-09-28T19:34:30.192Z,7.00
2017-09-28T19:37:03.058Z,13.30
2017-09-28T19:39:35.179Z,10.50
2017-09-28T19:42:06.218Z,9.83
2017-09-28T19:44:38.286Z,9.63
2017-09-28T19:47:12.096Z,12.10
2017-09-28T19:49:45.300Z,14.87
2017-09-28T19:52:17.930Z,15.40
2017-09-28T19:54:50.747Z,13.03
2017-09-28T19:57:23.892Z,12.83
2017-09-28T19:59:56.780Z,9.00
2017-09-28T20:02:29.710Z,10.13
2017-09-28T20:05:02.222Z,10.57
2017-09-28T20:07:35.068Z,12.60
2017-09-28T20:10:08.877Z,10.17
2017-09-28T20:12:43.142Z,9.00
2017-09-28T20:15:15.755Z,12.70
2017-09-28T20:17:48.648Z,22.23
2017-09-28T20:20:21.372Z,13.30
2017-09-28T20:22:54.445Z,12.77
2017-09-28T20:25:27.368Z,20.07
2017-09-28T20:28:01.616Z,14.13
2017-09-28T20:30:34.545Z,16.43
2017-09-28T20:33:07.444Z,17.53
2017-09-28T20:35:41.025Z,10.30
2017-09-28T20:38:13.797Z,12.00
2017-09-28T20:40:46.768Z,12.80
2017-09-28T20:43:19.827Z,11.10
2017-09-28T20:45:52.752Z,10.70
2017-09-28T20:48:25.848Z,13.93
2017-09-28T20:50:58.641Z,9.60
2017-09-28T20:53:32.009Z,8.50
2017-09-28T20:56:05.206Z,8.30
2017-09-28T20:58:38.458Z,12.03
2017-09-28T21:01:11.152Z,9.17
2017-09-28T21:03:44.111Z,9.77
2017-09-28T21:06:16.520Z,8.50
2017-09-28T21:08:49.684Z,6.83
2017-09-28T21:11:22.966Z,8.90
2017-09-28T21:13:55.839Z,6.10
2017-09-28T21:16:28.442Z,7.30
2017-09-28T21:19:01.026Z,8.30
2017-09-28T21:21:33.791Z,6.20
2017-09-28T21:24:07.045Z,4.93
2017-09-28T21:26:39.580Z,7.77
2017-09-28T21:29:13.233Z,10.00
2017-09-28T21:31:46.328Z,8.00
2017-09-28T21:34:19.121Z,5.97
2017-09-28T21:36:51.525Z,7.23
2017-09-28T21:39:24.884Z,5.70
2017-09-28T21:41:57.604Z,10.30
2017-09-28T21:44:29.972Z,10.50
2017-09-28T21:47:02.393Z,9.83
2017-09-28T21:49:35.523Z,7.00
2017-09-28T21:52:08.443Z,5.70
2017-09-28T21:54:41.524Z,5.40
2017-09-28T21:57:13.943Z,7.43
2017-09-28T21:59:46.965Z,13.90
2017-09-28T22:02:19.443Z,8.17
2017-09-28T22:04:52.098Z,8.30
2017-09-28T22:07:24.614Z,15.30
2017-09-28T22:09:57.110Z,8.07
2017-09-28T22:12:29.893Z,10.43
2017-09-28T22:15:02.373Z,12.00
2017-09-28T22:17:35.037Z,10.80
2017-09-28T22:20:08.247Z,12.77
2017-09-28T22:22:40.763Z,10.00
2017-09-28T22:25:13.283Z,12.93
2017-09-28T22:27:45.571Z,13.50
2017-09-28T22:30:18.616Z,11.00
2017-09-28T22:32:51.286Z,13.77
2017-09-28T22:35:24.177Z,13.57
2017-09-28T22:37:56.523Z,14.13
2017-09-28T22:40:29.832Z,9.77
2017-09-28T22:43:02.669Z,11.20
2017-09-28T22:45:36.002Z,17.10
2017-09-28T22:48:08.408Z,13.17
2017-09-28T22:50:41.323Z,13.90
2017-09-28T22:53:14.839Z,14.80
2017-09-28T22:55:48.037Z,21.20
2017-09-28T22:58:21.020Z,19.80
2017-09-28T23:00:53.259Z,18.10
2017-09-28T23:03:25.861Z,16.70
2017-09-28T23:05:58.643Z,17.77
2017-09-28T23:08:32.077Z,19.70
2017-09-28T23:11:04.514Z,19.20
2017-09-28T23:13:36.855Z,20.17
2017-09-28T23:16:09.088Z,20.33
2017-09-28T23:18:41.564Z,19.63
2017-09-28T23:21:13.895Z,18.00
2017-09-28T23:23:46.361Z,15.70
2017-09-28T23:26:18.829Z,14.33
2017-09-28T23:28:51.650Z,19.67
2017-09-28T23:31:24.037Z,18.75
2017-09-28T23:33:56.246Z,19.33
2017-09-28T23:36:27.254Z,22.43
2017-09-28T23:38:58.294Z,21.45
2017-09-28T23:41:29.899Z,18.10
2017-09-28T23:44:01.183Z,17.30
2017-09-28T23:46:32.612Z,21.83
2017-09-28T23:49:04.011Z,27.70
2017-09-28T23:51:35.499Z,18.42
2017-09-28T23:54:06.195Z,20.30
2017-09-28T23:56:37.721Z,17.77
2017-09-28T23:59:08.765Z,19.48
